sensor_id;sensor_type;location;lat;lon;timestamp;pressure;altitude;pressure_sealevel;temperature;humidity
67345;BME280;54230;52.402;6.276;2022-07-29T00:00:00;101840.0;;;17.5;59.6
67345;BME280;54230;52.402;6.276;2022-07-29T00:05:00;101830.0;;;17.4;59.8
67345;BME280;54230;52.402;6.276;2022-07-29T00:10:00;101830.0;;;17.3;60.1
67345;BME280;54230;52.402;6.276;2022-07-29T00:15:00;101830.0;;;17.2;60.3
67345;BME280;54230;52.402;6.276;2022-07-29T00:20:00;101820.0;;;17.1;60.4
67345;BME280;54230;52.402;6.276;2022-07-29T00:25:00;101820.0;;;17.1;60.4
67345;BME280;54230;52.402;6.276;2022-07-29T00:30:00;101810.0;;;17.1;60.5
67345;BME280;54230;52.402;6.276;2022-07-29T00:35:00;101800.0;;;17.1;60.5
67345;BME280;54230;52.402;6.276;2022-07-29T00:40:00;101800.0;;;17.0;60.8
67345;BME280;54230;52.402;6.276;2022-07-29T00:45:00;101800.0;;;16.9;61.0
67345;BME280;54230;52.402;6.276;2022-07-29T00:50:00;101790.0;;;16.9;61.1
67345;BME280;54230;52.402;6.276;2022-07-29T00:55:00;101790.0;;;16.9;61.2
67345;BME280;54230;52.402;6.276;2022-07-29T01:00:00;101790.0;;;16.8;61.1
67345;BME280;54230;52.402;6.276;2022-07-29T01:05:01;101780.0;;;16.8;61.4
67345;BME280;54230;52.402;6.276;2022-07-29T01:10:00;101780.0;;;16.7;61.5
67345;BME280;54230;52.402;6.276;2022-07-29T01:15:01;101770.0;;;16.5;62.3
67345;BME280;54230;52.402;6.276;2022-07-29T01:20:03;101760.0;;;16.6;62.1
67345;BME280;54230;52.402;6.276;2022-07-29T01:25:12;101760.0;;;16.5;62.5
67345;BME280;54230;52.402;6.276;2022-07-29T01:30:01;101760.0;;;16.6;62.3
67345;BME280;54230;52.402;6.276;2022-07-29T01:35:04;101760.0;;;16.6;62.3
67345;BME280;54230;52.402;6.276;2022-07-29T01:40:02;101750.0;;;16.5;62.5
67345;BME280;54230;52.402;6.276;2022-07-29T01:45:03;101740.0;;;16.6;62.2
67345;BME280;54230;52.402;6.276;2022-07-29T01:50:00;101740.0;;;16.5;62.5
67345;BME280;54230;52.402;6.276;2022-07-29T01:55:04;101730.0;;;16.4;62.2
67345;BME280;54230;52.402;6.276;2022-07-29T02:00:00;101730.0;;;16.5;61.9
67345;BME280;54230;52.402;6.276;2022-07-29T02:05:02;101720.0;;;16.5;61.9
67345;BME280;54230;52.402;6.276;2022-07-29T02:10:02;101720.0;;;16.4;62.1
67345;BME280;54230;52.402;6.276;2022-07-29T02:15:02;101730.0;;;16.4;62.1
67345;BME280;54230;52.402;6.276;2022-07-29T02:20:03;101730.0;;;16.5;62.1
67345;BME280;54230;52.402;6.276;2022-07-29T02:25:00;101730.0;;;16.3;62.3
67345;BME280;54230;52.402;6.276;2022-07-29T02:30:00;101730.0;;;16.3;62.5
67345;BME280;54230;52.402;6.276;2022-07-29T02:35:00;101720.0;;;16.3;62.2
67345;BME280;54230;52.402;6.276;2022-07-29T02:40:01;101710.0;;;16.3;62.1
67345;BME280;54230;52.402;6.276;2022-07-29T02:45:00;101710.0;;;16.3;62.0
67345;BME280;54230;52.402;6.276;2022-07-29T02:50:02;101720.0;;;16.3;62.1
67345;BME280;54230;52.402;6.276;2022-07-29T02:55:02;101720.0;;;16.2;62.5
67345;BME280;54230;52.402;6.276;2022-07-29T03:00:04;101710.0;;;16.0;62.9
67345;BME280;54230;52.402;6.276;2022-07-29T03:05:00;101710.0;;;16.1;62.6
67345;BME280;54230;52.402;6.276;2022-07-29T03:10:00;101720.0;;;16.2;62.4
67345;BME280;54230;52.402;6.276;2022-07-29T03:15:00;101720.0;;;16.2;62.4
67345;BME280;54230;52.402;6.276;2022-07-29T03:20:00;101710.0;;;16.1;62.7
67345;BME280;54230;52.402;6.276;2022-07-29T03:25:07;101720.0;;;16.1;62.6
67345;BME280;54230;52.402;6.276;2022-07-29T03:30:00;101730.0;;;16.2;62.4
67345;BME280;54230;52.402;6.276;2022-07-29T03:35:00;101730.0;;;16.1;62.6
67345;BME280;54230;52.402;6.276;2022-07-29T03:40:01;101730.0;;;16.1;62.8
67345;BME280;54230;52.402;6.276;2022-07-29T03:45:02;101720.0;;;16.0;62.9
67345;BME280;54230;52.402;6.276;2022-07-29T03:50:02;101710.0;;;16.1;62.8
67345;BME280;54230;52.402;6.276;2022-07-29T03:55:00;101710.0;;;16.1;62.8
67345;BME280;54230;52.402;6.276;2022-07-29T04:00:02;101720.0;;;16.1;62.8
67345;BME280;54230;52.402;6.276;2022-07-29T04:05:00;101730.0;;;16.0;63.3
67345;BME280;54230;52.402;6.276;2022-07-29T04:10:00;101740.0;;;16.1;63.1
67345;BME280;54230;52.402;6.276;2022-07-29T04:15:00;101730.0;;;15.9;63.7
67345;BME280;54230;52.402;6.276;2022-07-29T04:20:00;101720.0;;;15.9;63.8
67345;BME280;54230;52.402;6.276;2022-07-29T04:25:00;101730.0;;;15.9;64.0
67345;BME280;54230;52.402;6.276;2022-07-29T04:30:00;101730.0;;;15.9;63.9
67345;BME280;54230;52.402;6.276;2022-07-29T04:35:00;101740.0;;;16.0;63.7
67345;BME280;54230;52.402;6.276;2022-07-29T04:40:00;101730.0;;;16.0;63.8
67345;BME280;54230;52.402;6.276;2022-07-29T04:45:00;101730.0;;;16.0;63.9
67345;BME280;54230;52.402;6.276;2022-07-29T04:50:00;101730.0;;;16.0;64.0
67345;BME280;54230;52.402;6.276;2022-07-29T04:55:00;101730.0;;;16.1;63.6
67345;BME280;54230;52.402;6.276;2022-07-29T05:00:00;101730.0;;;16.0;64.1
67345;BME280;54230;52.402;6.276;2022-07-29T05:05:00;101730.0;;;16.2;63.6
67345;BME280;54230;52.402;6.276;2022-07-29T05:10:00;101730.0;;;16.3;63.4
67345;BME280;54230;52.402;6.276;2022-07-29T05:15:00;101720.0;;;16.3;63.5
67345;BME280;54230;52.402;6.276;2022-07-29T05:20:00;101710.0;;;16.2;63.8
67345;BME280;54230;52.402;6.276;2022-07-29T05:25:00;101700.0;;;16.2;64.1
67345;BME280;54230;52.402;6.276;2022-07-29T05:30:00;101710.0;;;16.1;64.3
67345;BME280;54230;52.402;6.276;2022-07-29T05:35:00;101720.0;;;16.1;64.1
67345;BME280;54230;52.402;6.276;2022-07-29T05:40:00;101730.0;;;16.2;64.1
67345;BME280;54230;52.402;6.276;2022-07-29T05:45:00;101730.0;;;16.2;64.8
67345;BME280;54230;52.402;6.276;2022-07-29T05:50:00;101730.0;;;16.2;65.4
67345;BME280;54230;52.402;6.276;2022-07-29T05:55:00;101720.0;;;16.2;65.5
67345;BME280;54230;52.402;6.276;2022-07-29T06:00:00;101730.0;;;16.3;65.4
67345;BME280;54230;52.402;6.276;2022-07-29T06:05:00;101740.0;;;16.3;65.4
67345;BME280;54230;52.402;6.276;2022-07-29T06:10:00;101740.0;;;16.4;65.7
67345;BME280;54230;52.402;6.276;2022-07-29T06:15:00;101740.0;;;16.4;65.9
67345;BME280;54230;52.402;6.276;2022-07-29T06:20:00;101750.0;;;16.5;65.5
67345;BME280;54230;52.402;6.276;2022-07-29T06:25:00;101740.0;;;16.5;66.2
67345;BME280;54230;52.402;6.276;2022-07-29T06:30:00;101740.0;;;16.5;66.7
67345;BME280;54230;52.402;6.276;2022-07-29T06:35:00;101760.0;;;16.6;66.5
67345;BME280;54230;52.402;6.276;2022-07-29T06:40:00;101770.0;;;16.8;65.8
67345;BME280;54230;52.402;6.276;2022-07-29T06:45:00;101770.0;;;16.8;65.1
67345;BME280;54230;52.402;6.276;2022-07-29T06:50:00;101780.0;;;16.8;64.5
67345;BME280;54230;52.402;6.276;2022-07-29T06:55:00;101760.0;;;16.9;64.6
67345;BME280;54230;52.402;6.276;2022-07-29T07:00:00;101760.0;;;17.1;63.5
67345;BME280;54230;52.402;6.276;2022-07-29T07:05:00;101750.0;;;17.1;63.2
67345;BME280;54230;52.402;6.276;2022-07-29T07:10:00;101760.0;;;17.3;62.1
67345;BME280;54230;52.402;6.276;2022-07-29T07:15:00;101770.0;;;17.5;61.9
67345;BME280;54230;52.402;6.276;2022-07-29T07:20:00;101770.0;;;17.5;61.4
67345;BME280;54230;52.402;6.276;2022-07-29T07:25:00;101760.0;;;17.7;61.0
67345;BME280;54230;52.402;6.276;2022-07-29T07:30:00;101760.0;;;17.9;60.6
67345;BME280;54230;52.402;6.276;2022-07-29T07:35:00;101750.0;;;18.0;59.8
67345;BME280;54230;52.402;6.276;2022-07-29T07:40:00;101760.0;;;18.1;60.0
67345;BME280;54230;52.402;6.276;2022-07-29T07:45:00;101750.0;;;18.2;59.5
67345;BME280;54230;52.402;6.276;2022-07-29T07:50:00;101740.0;;;18.2;59.3
67345;BME280;54230;52.402;6.276;2022-07-29T07:55:00;101750.0;;;18.3;58.8
67345;BME280;54230;52.402;6.276;2022-07-29T08:00:00;101740.0;;;18.2;59.3
67345;BME280;54230;52.402;6.276;2022-07-29T08:05:00;101740.0;;;18.3;59.5
67345;BME280;54230;52.402;6.276;2022-07-29T08:10:00;101740.0;;;18.1;59.6
67345;BME280;54230;52.402;6.276;2022-07-29T08:15:00;101740.0;;;18.1;59.7
67345;BME280;54230;52.402;6.276;2022-07-29T08:20:00;101730.0;;;18.4;59.5
67345;BME280;54230;52.402;6.276;2022-07-29T08:25:00;101740.0;;;18.7;58.5
67345;BME280;54230;52.402;6.276;2022-07-29T08:30:00;101740.0;;;18.8;58.3
67345;BME280;54230;52.402;6.276;2022-07-29T08:35:00;101740.0;;;19.0;58.4
67345;BME280;54230;52.402;6.276;2022-07-29T08:40:00;101750.0;;;19.2;58.0
67345;BME280;54230;52.402;6.276;2022-07-29T08:45:00;101750.0;;;19.4;57.4
67345;BME280;54230;52.402;6.276;2022-07-29T08:50:00;101750.0;;;19.5;56.9
67345;BME280;54230;52.402;6.276;2022-07-29T08:55:00;101750.0;;;19.7;56.7
67345;BME280;54230;52.402;6.276;2022-07-29T09:00:00;101750.0;;;19.8;56.2
67345;BME280;54230;52.402;6.276;2022-07-29T09:05:00;101750.0;;;20.0;55.9
67345;BME280;54230;52.402;6.276;2022-07-29T09:10:00;101750.0;;;20.2;55.2
67345;BME280;54230;52.402;6.276;2022-07-29T09:15:00;101750.0;;;20.2;54.6
67345;BME280;54230;52.402;6.276;2022-07-29T09:20:07;101750.0;;;20.5;54.0
67345;BME280;54230;52.402;6.276;2022-07-29T09:25:00;101750.0;;;20.5;53.8
67345;BME280;54230;52.402;6.276;2022-07-29T09:30:03;101760.0;;;20.8;53.2
67345;BME280;54230;52.402;6.276;2022-07-29T09:35:13;101770.0;;;20.8;52.2
67345;BME280;54230;52.402;6.276;2022-07-29T09:40:11;101790.0;;;20.7;52.1
67345;BME280;54230;52.402;6.276;2022-07-29T09:45:00;101790.0;;;20.8;52.2
67345;BME280;54230;52.402;6.276;2022-07-29T09:50:00;101790.0;;;20.9;52.0
67345;BME280;54230;52.402;6.276;2022-07-29T09:55:09;101780.0;;;21.0;51.6
67345;BME280;54230;52.402;6.276;2022-07-29T10:00:03;101800.0;;;21.1;51.4
67345;BME280;54230;52.402;6.276;2022-07-29T10:05:01;101800.0;;;21.1;51.7
67345;BME280;54230;52.402;6.276;2022-07-29T10:10:00;101790.0;;;21.0;52.6
67345;BME280;54230;52.402;6.276;2022-07-29T10:15:01;101800.0;;;21.1;52.5
67345;BME280;54230;52.402;6.276;2022-07-29T10:20:00;101800.0;;;21.1;52.6
67345;BME280;54230;52.402;6.276;2022-07-29T10:25:00;101790.0;;;21.1;52.7
67345;BME280;54230;52.402;6.276;2022-07-29T10:30:00;101800.0;;;21.2;52.2
67345;BME280;54230;52.402;6.276;2022-07-29T10:40:04;101790.0;;;21.2;52.1
67345;BME280;54230;52.402;6.276;2022-07-29T10:45:00;101780.0;;;21.4;52.4
67345;BME280;54230;52.402;6.276;2022-07-29T10:50:01;101790.0;;;21.5;52.2
67345;BME280;54230;52.402;6.276;2022-07-29T10:55:00;101780.0;;;21.8;51.8
67345;BME280;54230;52.402;6.276;2022-07-29T11:05:00;101770.0;;;22.0;51.3
67345;BME280;54230;52.402;6.276;2022-07-29T11:15:00;101760.0;;;22.3;51.0
67345;BME280;54230;52.402;6.276;2022-07-29T11:25:13;101760.0;;;23.1;49.1
67345;BME280;54230;52.402;6.276;2022-07-29T11:30:00;101770.0;;;23.1;48.9
67345;BME280;54230;52.402;6.276;2022-07-29T11:35:10;101770.0;;;23.1;49.1
67345;BME280;54230;52.402;6.276;2022-07-29T11:40:11;101780.0;;;23.5;48.3
67345;BME280;54230;52.402;6.276;2022-07-29T11:45:01;101770.0;;;24.0;46.7
67345;BME280;54230;52.402;6.276;2022-07-29T11:50:02;101770.0;;;24.3;45.2
67345;BME280;54230;52.402;6.276;2022-07-29T11:55:01;101760.0;;;24.4;44.3
67345;BME280;54230;52.402;6.276;2022-07-29T12:00:00;101750.0;;;24.4;44.3
67345;BME280;54230;52.402;6.276;2022-07-29T12:05:00;101750.0;;;24.0;44.4
67345;BME280;54230;52.402;6.276;2022-07-29T12:10:01;101750.0;;;24.3;43.2
67345;BME280;54230;52.402;6.276;2022-07-29T12:15:10;101740.0;;;25.2;42.3
67345;BME280;54230;52.402;6.276;2022-07-29T12:20:02;101740.0;;;25.8;41.8
67345;BME280;54230;52.402;6.276;2022-07-29T12:25:01;101740.0;;;25.8;41.0
67345;BME280;54230;52.402;6.276;2022-07-29T12:30:01;101740.0;;;26.6;39.9
67345;BME280;54230;52.402;6.276;2022-07-29T12:35:02;101750.0;;;26.1;40.0
67345;BME280;54230;52.402;6.276;2022-07-29T12:40:00;101750.0;;;25.9;39.8
67345;BME280;54230;52.402;6.276;2022-07-29T12:45:00;101750.0;;;25.9;39.6
67345;BME280;54230;52.402;6.276;2022-07-29T12:50:08;101750.0;;;25.7;41.0
67345;BME280;54230;52.402;6.276;2022-07-29T12:55:00;101740.0;;;26.1;41.1
67345;BME280;54230;52.402;6.276;2022-07-29T13:00:02;101730.0;;;26.1;41.2
67345;BME280;54230;52.402;6.276;2022-07-29T13:05:01;101730.0;;;25.6;42.0
67345;BME280;54230;52.402;6.276;2022-07-29T13:10:11;101730.0;;;25.6;42.4
67345;BME280;54230;52.402;6.276;2022-07-29T13:15:00;101720.0;;;26.1;41.5
67345;BME280;54230;52.402;6.276;2022-07-29T13:20:05;101720.0;;;26.8;40.8
67345;BME280;54230;52.402;6.276;2022-07-29T13:25:01;101720.0;;;26.8;40.0
67345;BME280;54230;52.402;6.276;2022-07-29T13:30:01;101720.0;;;27.3;39.7
67345;BME280;54230;52.402;6.276;2022-07-29T13:35:02;101720.0;;;27.2;39.7
67345;BME280;54230;52.402;6.276;2022-07-29T13:40:00;101720.0;;;27.5;39.1
67345;BME280;54230;52.402;6.276;2022-07-29T13:45:00;101710.0;;;27.7;38.5
67345;BME280;54230;52.402;6.276;2022-07-29T13:50:00;101710.0;;;27.9;38.3
67345;BME280;54230;52.402;6.276;2022-07-29T13:55:00;101720.0;;;28.3;37.0
67345;BME280;54230;52.402;6.276;2022-07-29T14:00:00;101720.0;;;28.3;37.2
67345;BME280;54230;52.402;6.276;2022-07-29T14:05:00;101720.0;;;28.9;36.4
67345;BME280;54230;52.402;6.276;2022-07-29T14:10:00;101710.0;;;29.1;35.1
67345;BME280;54230;52.402;6.276;2022-07-29T14:15:00;101710.0;;;29.1;34.8
67345;BME280;54230;52.402;6.276;2022-07-29T14:20:00;101710.0;;;29.5;34.0
67345;BME280;54230;52.402;6.276;2022-07-29T14:25:00;101710.0;;;29.9;33.3
67345;BME280;54230;52.402;6.276;2022-07-29T14:30:00;101710.0;;;30.2;32.2
67345;BME280;54230;52.402;6.276;2022-07-29T14:35:00;101710.0;;;29.8;32.8
67345;BME280;54230;52.402;6.276;2022-07-29T14:40:00;101700.0;;;30.6;31.6
67345;BME280;54230;52.402;6.276;2022-07-29T14:45:00;101710.0;;;30.2;31.6
67345;BME280;54230;52.402;6.276;2022-07-29T14:50:00;101710.0;;;31.4;30.6
67345;BME280;54230;52.402;6.276;2022-07-29T14:55:00;101700.0;;;31.7;29.2
67345;BME280;54230;52.402;6.276;2022-07-29T15:00:00;101690.0;;;31.6;28.2
67345;BME280;54230;52.402;6.276;2022-07-29T15:05:00;101700.0;;;32.3;26.6
67345;BME280;54230;52.402;6.276;2022-07-29T15:10:00;101700.0;;;32.3;26.5
67345;BME280;54230;52.402;6.276;2022-07-29T15:15:00;101700.0;;;33.2;25.2
67345;BME280;54230;52.402;6.276;2022-07-29T15:20:00;101700.0;;;33.4;24.8
67345;BME280;54230;52.402;6.276;2022-07-29T15:25:00;101700.0;;;33.2;25.0
67345;BME280;54230;52.402;6.276;2022-07-29T15:30:00;101700.0;;;34.0;24.6
67345;BME280;54230;52.402;6.276;2022-07-29T15:35:00;101700.0;;;34.4;24.3
67345;BME280;54230;52.402;6.276;2022-07-29T15:40:00;101700.0;;;34.6;22.9
67345;BME280;54230;52.402;6.276;2022-07-29T15:45:00;101700.0;;;34.5;23.2
67345;BME280;54230;52.402;6.276;2022-07-29T15:50:00;101690.0;;;34.0;24.1
67345;BME280;54230;52.402;6.276;2022-07-29T15:55:00;101690.0;;;34.6;22.9
67345;BME280;54230;52.402;6.276;2022-07-29T16:00:00;101680.0;;;34.6;23.2
67345;BME280;54230;52.402;6.276;2022-07-29T16:05:00;101680.0;;;35.0;22.4
67345;BME280;54230;52.402;6.276;2022-07-29T16:10:00;101690.0;;;34.8;22.5
67345;BME280;54230;52.402;6.276;2022-07-29T16:15:00;101680.0;;;35.4;22.4
67345;BME280;54230;52.402;6.276;2022-07-29T16:20:00;101680.0;;;35.9;22.4
67345;BME280;54230;52.402;6.276;2022-07-29T16:25:00;101680.0;;;36.4;22.4
67345;BME280;54230;52.402;6.276;2022-07-29T16:30:00;101680.0;;;37.0;21.5
67345;BME280;54230;52.402;6.276;2022-07-29T16:35:00;101680.0;;;36.7;21.4
67345;BME280;54230;52.402;6.276;2022-07-29T16:40:00;101680.0;;;36.8;21.2
67345;BME280;54230;52.402;6.276;2022-07-29T16:45:00;101670.0;;;36.3;21.5
67345;BME280;54230;52.402;6.276;2022-07-29T16:50:00;101680.0;;;36.8;21.0
67345;BME280;54230;52.402;6.276;2022-07-29T16:55:00;101670.0;;;36.5;21.1
67345;BME280;54230;52.402;6.276;2022-07-29T17:00:00;101670.0;;;35.9;22.0
67345;BME280;54230;52.402;6.276;2022-07-29T17:05:00;101670.0;;;36.2;21.6
67345;BME280;54230;52.402;6.276;2022-07-29T17:10:00;101670.0;;;35.9;21.4
67345;BME280;54230;52.402;6.276;2022-07-29T17:15:00;101670.0;;;35.5;21.8
67345;BME280;54230;52.402;6.276;2022-07-29T17:20:00;101660.0;;;35.2;22.3
67345;BME280;54230;52.402;6.276;2022-07-29T17:25:00;101670.0;;;35.7;22.2
67345;BME280;54230;52.402;6.276;2022-07-29T17:30:00;101670.0;;;35.8;23.3
67345;BME280;54230;52.402;6.276;2022-07-29T17:35:00;101680.0;;;35.6;22.0
67345;BME280;54230;52.402;6.276;2022-07-29T17:40:00;101680.0;;;35.4;22.2
67345;BME280;54230;52.402;6.276;2022-07-29T17:45:00;101680.0;;;35.5;22.2
67345;BME280;54230;52.402;6.276;2022-07-29T17:50:00;101690.0;;;35.5;23.1
67345;BME280;54230;52.402;6.276;2022-07-29T17:55:00;101690.0;;;35.2;23.4
67345;BME280;54230;52.402;6.276;2022-07-29T18:00:00;101690.0;;;35.3;23.7
67345;BME280;54230;52.402;6.276;2022-07-29T18:05:00;101690.0;;;34.8;23.9
67345;BME280;54230;52.402;6.276;2022-07-29T18:10:00;101680.0;;;34.7;24.7
67345;BME280;54230;52.402;6.276;2022-07-29T18:15:00;101680.0;;;34.1;24.9
67345;BME280;54230;52.402;6.276;2022-07-29T18:20:00;101690.0;;;32.6;26.6
67345;BME280;54230;52.402;6.276;2022-07-29T18:25:00;101690.0;;;30.9;29.6
67345;BME280;54230;52.402;6.276;2022-07-29T18:30:00;101690.0;;;30.1;31.6
67345;BME280;54230;52.402;6.276;2022-07-29T18:35:00;101700.0;;;30.4;31.8
67345;BME280;54230;52.402;6.276;2022-07-29T18:40:00;101700.0;;;30.9;31.0
67345;BME280;54230;52.402;6.276;2022-07-29T18:45:00;101690.0;;;30.7;31.7
67345;BME280;54230;52.402;6.276;2022-07-29T18:50:00;101700.0;;;30.6;32.2
67345;BME280;54230;52.402;6.276;2022-07-29T18:55:00;101700.0;;;29.5;33.9
67345;BME280;54230;52.402;6.276;2022-07-29T19:00:00;101710.0;;;28.9;35.4
67345;BME280;54230;52.402;6.276;2022-07-29T19:05:01;101720.0;;;28.3;36.6
67345;BME280;54230;52.402;6.276;2022-07-29T19:10:00;101720.0;;;27.6;38.5
67345;BME280;54230;52.402;6.276;2022-07-29T19:15:00;101720.0;;;27.1;40.6
67345;BME280;54230;52.402;6.276;2022-07-29T19:20:00;101720.0;;;26.9;42.0
67345;BME280;54230;52.402;6.276;2022-07-29T19:25:00;101720.0;;;26.4;43.4
67345;BME280;54230;52.402;6.276;2022-07-29T19:30:00;101730.0;;;26.3;44.0
67345;BME280;54230;52.402;6.276;2022-07-29T19:35:00;101730.0;;;25.8;45.2
67345;BME280;54230;52.402;6.276;2022-07-29T19:40:00;101750.0;;;25.3;46.6
67345;BME280;54230;52.402;6.276;2022-07-29T19:45:00;101750.0;;;25.1;47.3
67345;BME280;54230;52.402;6.276;2022-07-29T19:50:00;101760.0;;;25.0;48.1
67345;BME280;54230;52.402;6.276;2022-07-29T19:55:00;101760.0;;;25.0;48.1
67345;BME280;54230;52.402;6.276;2022-07-29T20:00:00;101770.0;;;24.8;48.9
67345;BME280;54230;52.402;6.276;2022-07-29T20:05:00;101770.0;;;24.8;49.4
67345;BME280;54230;52.402;6.276;2022-07-29T20:10:00;101770.0;;;24.7;50.0
67345;BME280;54230;52.402;6.276;2022-07-29T20:15:00;101780.0;;;24.6;50.5
67345;BME280;54230;52.402;6.276;2022-07-29T20:20:00;101780.0;;;24.6;50.0
67345;BME280;54230;52.402;6.276;2022-07-29T20:25:00;101780.0;;;24.4;50.8
67345;BME280;54230;52.402;6.276;2022-07-29T20:30:00;101780.0;;;24.0;51.6
67345;BME280;54230;52.402;6.276;2022-07-29T20:35:00;101780.0;;;23.9;52.0
67345;BME280;54230;52.402;6.276;2022-07-29T20:40:00;101780.0;;;23.6;53.1
67345;BME280;54230;52.402;6.276;2022-07-29T20:45:00;101780.0;;;23.4;53.5
67345;BME280;54230;52.402;6.276;2022-07-29T20:50:00;101780.0;;;23.5;53.5
67345;BME280;54230;52.402;6.276;2022-07-29T20:55:00;101780.0;;;23.4;53.7
67345;BME280;54230;52.402;6.276;2022-07-29T21:00:00;101780.0;;;23.4;53.7
67345;BME280;54230;52.402;6.276;2022-07-29T21:05:00;101790.0;;;23.1;54.3
67345;BME280;54230;52.402;6.276;2022-07-29T21:10:00;101780.0;;;23.1;54.6
67345;BME280;54230;52.402;6.276;2022-07-29T21:15:00;101780.0;;;23.0;54.8
67345;BME280;54230;52.402;6.276;2022-07-29T21:20:01;101790.0;;;23.0;55.0
67345;BME280;54230;52.402;6.276;2022-07-29T21:25:00;101790.0;;;22.6;55.8
67345;BME280;54230;52.402;6.276;2022-07-29T21:30:00;101790.0;;;22.4;56.5
67345;BME280;54230;52.402;6.276;2022-07-29T21:35:00;101800.0;;;22.2;57.4
67345;BME280;54230;52.402;6.276;2022-07-29T21:40:00;101800.0;;;22.0;58.0
67345;BME280;54230;52.402;6.276;2022-07-29T21:45:01;101800.0;;;21.7;58.9
67345;BME280;54230;52.402;6.276;2022-07-29T21:50:00;101800.0;;;21.6;59.4
67345;BME280;54230;52.402;6.276;2022-07-29T21:55:00;101800.0;;;21.4;59.9
67345;BME280;54230;52.402;6.276;2022-07-29T22:00:00;101800.0;;;21.2;60.4
67345;BME280;54230;52.402;6.276;2022-07-29T22:05:00;101800.0;;;21.2;60.6
67345;BME280;54230;52.402;6.276;2022-07-29T22:10:00;101790.0;;;21.0;61.3
67345;BME280;54230;52.402;6.276;2022-07-29T22:15:00;101790.0;;;20.9;61.6
67345;BME280;54230;52.402;6.276;2022-07-29T22:20:00;101790.0;;;20.9;61.9
67345;BME280;54230;52.402;6.276;2022-07-29T22:25:00;101790.0;;;20.9;62.0
67345;BME280;54230;52.402;6.276;2022-07-29T22:30:00;101790.0;;;20.8;62.4
67345;BME280;54230;52.402;6.276;2022-07-29T22:35:00;101790.0;;;20.8;62.9
67345;BME280;54230;52.402;6.276;2022-07-29T22:40:00;101790.0;;;20.7;63.5
67345;BME280;54230;52.402;6.276;2022-07-29T22:45:00;101790.0;;;20.6;63.1
67345;BME280;54230;52.402;6.276;2022-07-29T22:50:00;101790.0;;;20.5;63.7
67345;BME280;54230;52.402;6.276;2022-07-29T22:55:00;101770.0;;;20.4;63.3
67345;BME280;54230;52.402;6.276;2022-07-29T23:00:00;101790.0;;;20.4;64.1
67345;BME280;54230;52.402;6.276;2022-07-29T23:05:00;101790.0;;;20.3;64.2
67345;BME280;54230;52.402;6.276;2022-07-29T23:10:00;101790.0;;;20.2;64.7
67345;BME280;54230;52.402;6.276;2022-07-29T23:15:00;101790.0;;;20.2;64.5
67345;BME280;54230;52.402;6.276;2022-07-29T23:20:00;101780.0;;;20.2;64.4
67345;BME280;54230;52.402;6.276;2022-07-29T23:25:00;101770.0;;;20.1;65.0
67345;BME280;54230;52.402;6.276;2022-07-29T23:30:00;101770.0;;;20.2;64.5
67345;BME280;54230;52.402;6.276;2022-07-29T23:35:00;101770.0;;;20.0;65.2
67345;BME280;54230;52.402;6.276;2022-07-29T23:40:00;101770.0;;;20.0;65.2
67345;BME280;54230;52.402;6.276;2022-07-29T23:45:00;101770.0;;;19.9;65.6
67345;BME280;54230;52.402;6.276;2022-07-29T23:50:00;101770.0;;;19.7;66.6
67345;BME280;54230;52.402;6.276;2022-07-29T23:55:00;101760.0;;;19.2;68.6
